sensor_id;sensor_type;location;lat;lon;timestamp;pressure;altitude;pressure_sealevel;temperature;humidity
30110;BME280;14965;50.660;13.226;2023-03-14T00:01:32;92946.91;;;7.39;100.00
30110;BME280;14965;50.660;13.226;2023-03-14T00:03:58;92928.66;;;7.36;100.00
30110;BME280;14965;50.660;13.226;2023-03-14T00:06:24;92921.34;;;7.33;100.00
30110;BME280;14965;50.660;13.226;2023-03-14T00:08:51;92923.00;;;7.30;100.00
30110;BME280;14965;50.660;13.226;2023-03-14T00:11:21;92904.25;;;7.29;100.00
30110;BME280;14965;50.660;13.226;2023-03-14T00:13:47;92892.69;;;7.24;100.00
30110;BME280;14965;50.660;13.226;2023-03-14T00:16:15;92888.88;;;7.22;100.00
30110;BME280;14965;50.660;13.226;2023-03-14T00:18:42;92889.63;;;7.22;100.00
30110;BME280;14965;50.660;13.226;2023-03-14T00:21:11;92901.56;;;7.19;100.00
30110;BME280;14965;50.660;13.226;2023-03-14T00:23:39;92915.00;;;7.17;100.00
30110;BME280;14965;50.660;13.226;2023-03-14T00:26:10;92914.22;;;7.17;100.00
30110;BME280;14965;50.660;13.226;2023-03-14T00:28:38;92918.22;;;7.16;100.00
30110;BME280;14965;50.660;13.226;2023-03-14T00:31:07;92926.88;;;7.14;100.00
30110;BME280;14965;50.660;13.226;2023-03-14T00:33:33;92936.34;;;7.13;100.00
30110;BME280;14965;50.660;13.226;2023-03-14T00:36:02;92940.81;;;7.11;100.00
30110;BME280;14965;50.660;13.226;2023-03-14T00:38:30;92937.00;;;7.08;100.00
30110;BME280;14965;50.660;13.226;2023-03-14T00:40:56;92934.72;;;7.07;100.00
30110;BME280;14965;50.660;13.226;2023-03-14T00:43:24;92921.75;;;7.07;100.00
30110;BME280;14965;50.660;13.226;2023-03-14T00:45:52;92929.66;;;7.05;100.00
30110;BME280;14965;50.660;13.226;2023-03-14T00:48:20;92932.72;;;7.07;100.00
30110;BME280;14965;50.660;13.226;2023-03-14T00:50:47;92928.44;;;7.06;100.00
30110;BME280;14965;50.660;13.226;2023-03-14T00:53:13;92934.13;;;7.03;100.00
30110;BME280;14965;50.660;13.226;2023-03-14T00:55:40;92922.06;;;7.00;100.00
30110;BME280;14965;50.660;13.226;2023-03-14T00:58:06;92934.28;;;6.99;100.00
30110;BME280;14965;50.660;13.226;2023-03-14T01:00:33;92925.28;;;6.98;100.00
30110;BME280;14965;50.660;13.226;2023-03-14T01:03:00;92919.81;;;6.98;100.00
30110;BME280;14965;50.660;13.226;2023-03-14T01:05:27;92925.72;;;6.97;100.00
30110;BME280;14965;50.660;13.226;2023-03-14T01:07:53;92914.75;;;6.97;100.00
30110;BME280;14965;50.660;13.226;2023-03-14T01:10:19;92923.75;;;6.97;100.00
30110;BME280;14965;50.660;13.226;2023-03-14T01:12:46;92930.47;;;6.96;100.00
30110;BME280;14965;50.660;13.226;2023-03-14T01:15:12;92939.47;;;6.97;100.00
30110;BME280;14965;50.660;13.226;2023-03-14T01:17:38;92941.75;;;6.98;100.00
30110;BME280;14965;50.660;13.226;2023-03-14T01:20:11;92939.47;;;6.97;100.00
30110;BME280;14965;50.660;13.226;2023-03-14T01:22:39;92944.78;;;7.01;100.00
30110;BME280;14965;50.660;13.226;2023-03-14T01:25:08;92946.31;;;7.02;100.00
30110;BME280;14965;50.660;13.226;2023-03-14T01:27:34;92930.78;;;6.98;100.00
30110;BME280;14965;50.660;13.226;2023-03-14T01:30:01;92937.16;;;7.05;100.00
30110;BME280;14965;50.660;13.226;2023-03-14T01:32:27;92930.16;;;7.04;100.00
30110;BME280;14965;50.660;13.226;2023-03-14T01:34:53;92916.25;;;7.07;100.00
30110;BME280;14965;50.660;13.226;2023-03-14T01:37:24;92913.50;;;7.07;100.00
30110;BME280;14965;50.660;13.226;2023-03-14T01:39:50;92907.28;;;7.07;100.00
30110;BME280;14965;50.660;13.226;2023-03-14T01:42:17;92897.34;;;7.09;100.00
30110;BME280;14965;50.660;13.226;2023-03-14T01:44:50;92905.88;;;7.11;100.00
30110;BME280;14965;50.660;13.226;2023-03-14T01:47:32;92897.94;;;7.13;100.00
30110;BME280;14965;50.660;13.226;2023-03-14T01:50:08;92904.66;;;7.12;100.00
30110;BME280;14965;50.660;13.226;2023-03-14T01:53:04;92906.63;;;7.12;100.00
30110;BME280;14965;50.660;13.226;2023-03-14T01:55:30;92905.41;;;7.13;100.00
30110;BME280;14965;50.660;13.226;2023-03-14T01:58:03;92904.94;;;7.14;100.00
30110;BME280;14965;50.660;13.226;2023-03-14T02:00:43;92897.94;;;7.13;100.00
30110;BME280;14965;50.660;13.226;2023-03-14T02:03:15;92899.91;;;7.13;100.00
30110;BME280;14965;50.660;13.226;2023-03-14T02:05:44;92910.88;;;7.13;100.00
30110;BME280;14965;50.660;13.226;2023-03-14T02:08:15;92912.41;;;7.14;100.00
30110;BME280;14965;50.660;13.226;2023-03-14T02:10:46;92914.41;;;7.13;100.00
30110;BME280;14965;50.660;13.226;2023-03-14T02:13:16;92915.63;;;7.12;100.00
30110;BME280;14965;50.660;13.226;2023-03-14T02:15:43;92912.13;;;7.12;100.00
30110;BME280;14965;50.660;13.226;2023-03-14T02:18:10;92908.31;;;7.09;100.00
30110;BME280;14965;50.660;13.226;2023-03-14T02:20:44;92898.84;;;7.10;100.00
30110;BME280;14965;50.660;13.226;2023-03-14T02:23:19;92897.34;;;7.09;100.00
30110;BME280;14965;50.660;13.226;2023-03-14T02:25:55;92890.31;;;7.08;100.00
30110;BME280;14965;50.660;13.226;2023-03-14T02:28:25;92895.19;;;7.13;100.00
30110;BME280;14965;50.660;13.226;2023-03-14T02:30:51;92895.78;;;7.17;100.00
30110;BME280;14965;50.660;13.226;2023-03-14T02:33:20;92894.53;;;7.18;100.00
30110;BME280;14965;50.660;13.226;2023-03-14T02:35:53;92896.09;;;7.19;100.00
30110;BME280;14965;50.660;13.226;2023-03-14T02:38:33;92888.13;;;7.21;100.00
30110;BME280;14965;50.660;13.226;2023-03-14T02:41:05;92902.16;;;7.23;100.00
30110;BME280;14965;50.660;13.226;2023-03-14T02:43:33;92893.94;;;7.23;100.00
30110;BME280;14965;50.660;13.226;2023-03-14T02:46:01;92891.63;;;7.22;100.00
30110;BME280;14965;50.660;13.226;2023-03-14T02:48:33;92887.38;;;7.21;100.00
30110;BME280;14965;50.660;13.226;2023-03-14T02:51:01;92885.09;;;7.19;100.00
30110;BME280;14965;50.660;13.226;2023-03-14T02:53:30;92876.88;;;7.19;100.00
30110;BME280;14965;50.660;13.226;2023-03-14T02:55:57;92865.88;;;7.19;100.00
30110;BME280;14965;50.660;13.226;2023-03-14T02:58:24;92864.34;;;7.18;100.00
30110;BME280;14965;50.660;13.226;2023-03-14T03:00:52;92866.81;;;7.16;100.00
30110;BME280;14965;50.660;13.226;2023-03-14T03:03:20;92868.03;;;7.15;100.00
30110;BME280;14965;50.660;13.226;2023-03-14T03:05:49;92854.75;;;7.14;100.00
30110;BME280;14965;50.660;13.226;2023-03-14T03:08:15;92861.19;;;7.11;100.00
30110;BME280;14965;50.660;13.226;2023-03-14T03:10:41;92872.19;;;7.11;100.00
30110;BME280;14965;50.660;13.226;2023-03-14T03:13:07;92869.59;;;7.07;100.00
30110;BME280;14965;50.660;13.226;2023-03-14T03:15:33;92874.66;;;6.99;100.00
30110;BME280;14965;50.660;13.226;2023-03-14T03:18:00;92872.38;;;6.98;100.00
30110;BME280;14965;50.660;13.226;2023-03-14T03:20:26;92886.09;;;6.98;100.00
30110;BME280;14965;50.660;13.226;2023-03-14T03:22:52;92887.78;;;6.95;100.00
30110;BME280;14965;50.660;13.226;2023-03-14T03:25:18;92887.31;;;6.97;100.00
30110;BME280;14965;50.660;13.226;2023-03-14T03:27:47;92890.81;;;6.97;100.00
30110;BME280;14965;50.660;13.226;2023-03-14T03:30:16;92889.63;;;6.98;100.00
30110;BME280;14965;50.660;13.226;2023-03-14T03:32:44;92894.78;;;6.96;100.00
30110;BME280;14965;50.660;13.226;2023-03-14T03:35:19;92892.81;;;6.97;100.00
30110;BME280;14965;50.660;13.226;2023-03-14T03:37:47;92876.06;;;6.95;100.00
30110;BME280;14965;50.660;13.226;2023-03-14T03:40:13;92874.06;;;6.95;100.00
30110;BME280;14965;50.660;13.226;2023-03-14T03:42:39;92866.31;;;6.94;100.00
30110;BME280;14965;50.660;13.226;2023-03-14T03:45:07;92867.22;;;6.91;100.00
30110;BME280;14965;50.660;13.226;2023-03-14T03:47:33;92857.94;;;6.88;100.00
30110;BME280;14965;50.660;13.226;2023-03-14T03:49:58;92835.84;;;6.83;100.00
30110;BME280;14965;50.660;13.226;2023-03-14T03:52:26;92850.97;;;6.78;100.00
30110;BME280;14965;50.660;13.226;2023-03-14T03:54:52;92850.38;;;6.74;100.00
30110;BME280;14965;50.660;13.226;2023-03-14T03:57:18;92861.50;;;6.70;100.00
30110;BME280;14965;50.660;13.226;2023-03-14T03:59:43;92867.91;;;6.67;100.00
30110;BME280;14965;50.660;13.226;2023-03-14T04:02:09;92855.59;;;6.63;100.00
30110;BME280;14965;50.660;13.226;2023-03-14T04:04:36;92853.91;;;6.65;100.00
30110;BME280;14965;50.660;13.226;2023-03-14T04:07:02;92853.31;;;6.61;100.00
30110;BME280;14965;50.660;13.226;2023-03-14T04:09:29;92854.72;;;6.57;100.00
30110;BME280;14965;50.660;13.226;2023-03-14T04:11:55;92858.19;;;6.57;100.00
30110;BME280;14965;50.660;13.226;2023-03-14T04:14:22;92854.72;;;6.57;100.00
30110;BME280;14965;50.660;13.226;2023-03-14T04:16:48;92836.44;;;6.54;100.00
30110;BME280;14965;50.660;13.226;2023-03-14T04:19:14;92827.59;;;6.49;100.00
30110;BME280;14965;50.660;13.226;2023-03-14T04:21:40;92827.28;;;6.47;100.00
30110;BME280;14965;50.660;13.226;2023-03-14T04:24:06;92822.28;;;6.46;100.00
30110;BME280;14965;50.660;13.226;2023-03-14T04:26:33;92818.94;;;6.42;100.00
30110;BME280;14965;50.660;13.226;2023-03-14T04:28:59;92817.59;;;6.37;100.00
30110;BME280;14965;50.660;13.226;2023-03-14T04:31:25;92814.09;;;6.37;100.00
30110;BME280;14965;50.660;13.226;2023-03-14T04:33:51;92818.81;;;6.36;100.00
30110;BME280;14965;50.660;13.226;2023-03-14T04:36:17;92816.81;;;6.37;100.00
30110;BME280;14965;50.660;13.226;2023-03-14T04:38:43;92820.63;;;6.30;100.00
30110;BME280;14965;50.660;13.226;2023-03-14T04:41:09;92838.78;;;6.28;100.00
30110;BME280;14965;50.660;13.226;2023-03-14T04:43:36;92845.47;;;6.27;100.00
30110;BME280;14965;50.660;13.226;2023-03-14T04:46:02;92829.34;;;6.29;100.00
30110;BME280;14965;50.660;13.226;2023-03-14T04:48:29;92827.66;;;6.31;100.00
30110;BME280;14965;50.660;13.226;2023-03-14T04:50:55;92818.50;;;6.34;100.00
30110;BME280;14965;50.660;13.226;2023-03-14T04:53:21;92822.75;;;6.35;100.00
30110;BME280;14965;50.660;13.226;2023-03-14T04:55:48;92815.31;;;6.36;100.00
30110;BME280;14965;50.660;13.226;2023-03-14T04:58:14;92810.44;;;6.40;100.00
30110;BME280;14965;50.660;13.226;2023-03-14T05:00:42;92814.06;;;6.46;100.00
30110;BME280;14965;50.660;13.226;2023-03-14T05:03:08;92805.53;;;6.44;100.00
30110;BME280;14965;50.660;13.226;2023-03-14T05:05:34;92802.78;;;6.44;100.00
30110;BME280;14965;50.660;13.226;2023-03-14T05:07:59;92802.31;;;6.45;100.00
30110;BME280;14965;50.660;13.226;2023-03-14T05:10:25;92787.84;;;6.45;100.00
30110;BME280;14965;50.660;13.226;2023-03-14T05:12:51;92795.50;;;6.41;100.00
30110;BME280;14965;50.660;13.226;2023-03-14T05:15:17;92801.72;;;6.41;100.00
30110;BME280;14965;50.660;13.226;2023-03-14T05:17:45;92776.00;;;6.39;100.00
30110;BME280;14965;50.660;13.226;2023-03-14T05:20:13;92783.94;;;6.37;100.00
30110;BME280;14965;50.660;13.226;2023-03-14T05:22:39;92789.41;;;6.37;100.00
30110;BME280;14965;50.660;13.226;2023-03-14T05:25:06;92781.19;;;6.37;100.00
30110;BME280;14965;50.660;13.226;2023-03-14T05:27:32;92782.09;;;6.34;100.00
30110;BME280;14965;50.660;13.226;2023-03-14T05:29:58;92766.13;;;6.32;100.00
30110;BME280;14965;50.660;13.226;2023-03-14T05:32:24;92773.88;;;6.34;100.00
30110;BME280;14965;50.660;13.226;2023-03-14T05:34:51;92771.44;;;6.36;100.00
30110;BME280;14965;50.660;13.226;2023-03-14T05:37:17;92770.38;;;6.33;100.00
30110;BME280;14965;50.660;13.226;2023-03-14T05:39:43;92766.88;;;6.33;100.00
30110;BME280;14965;50.660;13.226;2023-03-14T05:42:09;92760.47;;;6.36;100.00
30110;BME280;14965;50.660;13.226;2023-03-14T05:44:35;92763.66;;;6.34;100.00
30110;BME280;14965;50.660;13.226;2023-03-14T05:47:01;92765.97;;;6.36;100.00
30110;BME280;14965;50.660;13.226;2023-03-14T05:49:27;92766.56;;;6.40;100.00
30110;BME280;14965;50.660;13.226;2023-03-14T05:51:57;92757.88;;;6.41;100.00
30110;BME280;14965;50.660;13.226;2023-03-14T05:54:23;92765.34;;;6.41;100.00
30110;BME280;14965;50.660;13.226;2023-03-14T05:56:48;92774.59;;;6.43;100.00
30110;BME280;14965;50.660;13.226;2023-03-14T05:59:14;92777.81;;;6.42;100.00
30110;BME280;14965;50.660;13.226;2023-03-14T06:01:40;92783.28;;;6.42;100.00
30110;BME280;14965;50.660;13.226;2023-03-14T06:04:06;92779.03;;;6.41;100.00
30110;BME280;14965;50.660;13.226;2023-03-14T06:06:32;92772.31;;;6.42;100.00
30110;BME280;14965;50.660;13.226;2023-03-14T06:09:00;92774.44;;;6.47;100.00
30110;BME280;14965;50.660;13.226;2023-03-14T06:11:25;92783.25;;;6.51;100.00
30110;BME280;14965;50.660;13.226;2023-03-14T06:13:51;92783.41;;;6.47;100.00
30110;BME280;14965;50.660;13.226;2023-03-14T06:16:17;92790.44;;;6.48;99.90
30110;BME280;14965;50.660;13.226;2023-03-14T06:18:43;92792.44;;;6.48;100.00
30110;BME280;14965;50.660;13.226;2023-03-14T06:21:09;92793.31;;;6.54;99.63
30110;BME280;14965;50.660;13.226;2023-03-14T06:23:35;92800.13;;;6.59;100.00
30110;BME280;14965;50.660;13.226;2023-03-14T06:26:03;92792.97;;;6.61;99.56
30110;BME280;14965;50.660;13.226;2023-03-14T06:28:28;92793.25;;;6.63;99.47
30110;BME280;14965;50.660;13.226;2023-03-14T06:30:54;92791.59;;;6.66;98.53
30110;BME280;14965;50.660;13.226;2023-03-14T06:33:20;92771.28;;;6.72;98.71
30110;BME280;14965;50.660;13.226;2023-03-14T06:35:46;92774.97;;;6.69;97.49
30110;BME280;14965;50.660;13.226;2023-03-14T06:38:12;92781.78;;;6.74;98.07
30110;BME280;14965;50.660;13.226;2023-03-14T06:40:38;92785.28;;;6.74;97.49
30110;BME280;14965;50.660;13.226;2023-03-14T06:43:05;92772.63;;;6.77;97.98
30110;BME280;14965;50.660;13.226;2023-03-14T06:45:31;92780.41;;;6.79;97.92
30110;BME280;14965;50.660;13.226;2023-03-14T06:47:57;92773.22;;;6.81;97.58
30110;BME280;14965;50.660;13.226;2023-03-14T06:50:23;92771.53;;;6.84;97.54
30110;BME280;14965;50.660;13.226;2023-03-14T06:52:49;92782.97;;;6.82;97.04
30110;BME280;14965;50.660;13.226;2023-03-14T06:55:16;92784.97;;;6.82;97.78
30110;BME280;14965;50.660;13.226;2023-03-14T06:57:42;92782.22;;;6.82;97.43
30110;BME280;14965;50.660;13.226;2023-03-14T07:00:12;92795.47;;;6.83;97.35
30110;BME280;14965;50.660;13.226;2023-03-14T07:02:38;92792.25;;;6.85;96.61
30110;BME280;14965;50.660;13.226;2023-03-14T07:05:05;92791.03;;;6.86;97.17
30110;BME280;14965;50.660;13.226;2023-03-14T07:07:31;92777.00;;;6.84;96.91
30110;BME280;14965;50.660;13.226;2023-03-14T07:09:57;92790.44;;;6.82;96.35
30110;BME280;14965;50.660;13.226;2023-03-14T07:12:23;92785.56;;;6.86;96.59
30110;BME280;14965;50.660;13.226;2023-03-14T07:14:49;92788.28;;;6.86;95.09
30110;BME280;14965;50.660;13.226;2023-03-14T07:17:16;92776.53;;;6.85;95.20
30110;BME280;14965;50.660;13.226;2023-03-14T07:19:42;92787.06;;;6.87;95.59
30110;BME280;14965;50.660;13.226;2023-03-14T07:22:08;92781.09;;;6.88;95.96
30110;BME280;14965;50.660;13.226;2023-03-14T07:24:34;92786.72;;;6.94;95.77
30110;BME280;14965;50.660;13.226;2023-03-14T07:27:00;92787.88;;;7.02;96.08
30110;BME280;14965;50.660;13.226;2023-03-14T07:29:25;92790.03;;;6.98;94.09
30110;BME280;14965;50.660;13.226;2023-03-14T07:31:51;92781.81;;;6.98;93.31
30110;BME280;14965;50.660;13.226;2023-03-14T07:34:18;92782.59;;;6.98;94.65
30110;BME280;14965;50.660;13.226;2023-03-14T07:36:44;92791.09;;;7.01;95.67
30110;BME280;14965;50.660;13.226;2023-03-14T07:39:10;92780.13;;;7.01;95.93
30110;BME280;14965;50.660;13.226;2023-03-14T07:41:36;92781.78;;;7.07;96.10
30110;BME280;14965;50.660;13.226;2023-03-14T07:44:02;92775.03;;;7.08;95.86
30110;BME280;14965;50.660;13.226;2023-03-14T07:46:28;92786.03;;;7.08;96.69
30110;BME280;14965;50.660;13.226;2023-03-14T07:48:54;92785.13;;;7.02;97.89
30110;BME280;14965;50.660;13.226;2023-03-14T07:51:21;92773.56;;;6.98;98.26
30110;BME280;14965;50.660;13.226;2023-03-14T07:53:47;92792.97;;;6.94;97.48
30110;BME280;14965;50.660;13.226;2023-03-14T07:56:16;92790.34;;;7.00;98.47
30110;BME280;14965;50.660;13.226;2023-03-14T07:58:42;92787.09;;;7.11;97.23
30110;BME280;14965;50.660;13.226;2023-03-14T08:01:08;92789.13;;;7.25;97.75
30110;BME280;14965;50.660;13.226;2023-03-14T08:03:34;92795.31;;;7.35;96.20
30110;BME280;14965;50.660;13.226;2023-03-14T08:06:00;92784.16;;;7.38;94.75
30110;BME280;14965;50.660;13.226;2023-03-14T08:08:27;92787.78;;;7.44;95.41
30110;BME280;14965;50.660;13.226;2023-03-14T08:10:53;92789.47;;;7.42;93.34
30110;BME280;14965;50.660;13.226;2023-03-14T08:13:19;92792.03;;;7.45;93.61
30110;BME280;14965;50.660;13.226;2023-03-14T08:15:48;92781.50;;;7.44;92.70
30110;BME280;14965;50.660;13.226;2023-03-14T08:18:14;92787.13;;;7.49;92.05
30110;BME280;14965;50.660;13.226;2023-03-14T08:20:40;92786.94;;;7.53;91.41
30110;BME280;14965;50.660;13.226;2023-03-14T08:23:06;92776.53;;;7.57;90.82
30110;BME280;14965;50.660;13.226;2023-03-14T08:25:33;92783.19;;;7.65;91.65
30110;BME280;14965;50.660;13.226;2023-03-14T08:27:59;92792.63;;;7.64;90.17
30110;BME280;14965;50.660;13.226;2023-03-14T08:30:25;92786.56;;;7.60;89.19
30110;BME280;14965;50.660;13.226;2023-03-14T08:32:51;92787.53;;;7.57;90.35
30110;BME280;14965;50.660;13.226;2023-03-14T08:35:18;92791.97;;;7.55;90.37
30110;BME280;14965;50.660;13.226;2023-03-14T08:37:44;92801.63;;;7.50;89.58
30110;BME280;14965;50.660;13.226;2023-03-14T08:40:11;92802.84;;;7.49;89.59
30110;BME280;14965;50.660;13.226;2023-03-14T08:42:40;92807.59;;;7.48;89.01
30110;BME280;14965;50.660;13.226;2023-03-14T08:45:08;92799.94;;;7.53;89.18
30110;BME280;14965;50.660;13.226;2023-03-14T08:47:35;92802.78;;;7.58;88.09
30110;BME280;14965;50.660;13.226;2023-03-14T08:50:01;92795.88;;;7.63;87.72
30110;BME280;14965;50.660;13.226;2023-03-14T08:52:27;92798.88;;;7.65;86.71
30110;BME280;14965;50.660;13.226;2023-03-14T08:54:53;92809.13;;;7.64;86.61
30110;BME280;14965;50.660;13.226;2023-03-14T08:57:19;92799.19;;;7.67;86.03
30110;BME280;14965;50.660;13.226;2023-03-14T08:59:46;92795.69;;;7.66;86.27
30110;BME280;14965;50.660;13.226;2023-03-14T09:02:12;92795.38;;;7.64;85.68
30110;BME280;14965;50.660;13.226;2023-03-14T09:04:38;92804.50;;;7.70;86.78
30110;BME280;14965;50.660;13.226;2023-03-14T09:07:04;92805.09;;;7.74;85.60
30110;BME280;14965;50.660;13.226;2023-03-14T09:09:30;92811.63;;;7.77;85.43
30110;BME280;14965;50.660;13.226;2023-03-14T09:11:57;92809.94;;;7.80;85.34
30110;BME280;14965;50.660;13.226;2023-03-14T09:14:25;92815.16;;;7.78;84.75
30110;BME280;14965;50.660;13.226;2023-03-14T09:16:56;92820.16;;;7.79;85.03
30110;BME280;14965;50.660;13.226;2023-03-14T09:19:31;92823.50;;;7.83;85.63
30110;BME280;14965;50.660;13.226;2023-03-14T09:22:00;92820.84;;;7.89;84.12
30110;BME280;14965;50.660;13.226;2023-03-14T09:24:35;92818.38;;;7.91;84.59
30110;BME280;14965;50.660;13.226;2023-03-14T09:27:01;92820.25;;;7.85;84.42
30110;BME280;14965;50.660;13.226;2023-03-14T09:29:29;92821.50;;;7.84;85.12
30110;BME280;14965;50.660;13.226;2023-03-14T09:31:58;92826.59;;;7.76;85.51
30110;BME280;14965;50.660;13.226;2023-03-14T09:34:25;92830.28;;;7.73;86.51
30110;BME280;14965;50.660;13.226;2023-03-14T09:36:51;92827.16;;;7.65;86.05
30110;BME280;14965;50.660;13.226;2023-03-14T09:39:17;92828.84;;;7.63;86.39
30110;BME280;14965;50.660;13.226;2023-03-14T09:41:46;92831.09;;;7.64;86.05
30110;BME280;14965;50.660;13.226;2023-03-14T09:44:17;92821.34;;;7.63;85.50
30110;BME280;14965;50.660;13.226;2023-03-14T09:46:51;92830.66;;;7.66;85.63
30110;BME280;14965;50.660;13.226;2023-03-14T09:49:25;92830.34;;;7.64;85.49
30110;BME280;14965;50.660;13.226;2023-03-14T09:51:55;92832.50;;;7.60;85.63
30110;BME280;14965;50.660;13.226;2023-03-14T09:54:31;92840.91;;;7.56;86.36
30110;BME280;14965;50.660;13.226;2023-03-14T09:57:02;92837.56;;;7.61;87.10
30110;BME280;14965;50.660;13.226;2023-03-14T09:59:29;92821.66;;;7.65;86.18
30110;BME280;14965;50.660;13.226;2023-03-14T10:02:20;92817.91;;;7.78;87.17
30110;BME280;14965;50.660;13.226;2023-03-14T10:04:55;92811.44;;;7.81;85.99
30110;BME280;14965;50.660;13.226;2023-03-14T10:07:29;92815.91;;;7.78;84.36
30110;BME280;14965;50.660;13.226;2023-03-14T10:10:15;92815.25;;;7.83;83.11
30110;BME280;14965;50.660;13.226;2023-03-14T10:12:46;92819.03;;;7.86;84.25
30110;BME280;14965;50.660;13.226;2023-03-14T10:15:15;92816.94;;;7.81;83.67
30110;BME280;14965;50.660;13.226;2023-03-14T10:17:54;92813.91;;;7.79;84.49
30110;BME280;14965;50.660;13.226;2023-03-14T10:20:34;92821.22;;;7.82;84.95
30110;BME280;14965;50.660;13.226;2023-03-14T10:23:26;92815.72;;;7.82;84.60
30110;BME280;14965;50.660;13.226;2023-03-14T10:26:06;92814.31;;;7.86;85.16
30110;BME280;14965;50.660;13.226;2023-03-14T10:28:38;92817.63;;;7.90;84.28
30110;BME280;14965;50.660;13.226;2023-03-14T10:31:05;92822.66;;;7.92;84.39
30110;BME280;14965;50.660;13.226;2023-03-14T10:33:38;92808.59;;;7.90;83.81
30110;BME280;14965;50.660;13.226;2023-03-14T10:36:20;92807.84;;;7.89;82.80
30110;BME280;14965;50.660;13.226;2023-03-14T10:38:47;92801.59;;;7.89;83.16
30110;BME280;14965;50.660;13.226;2023-03-14T10:41:20;92803.13;;;8.05;83.88
30110;BME280;14965;50.660;13.226;2023-03-14T10:43:56;92808.72;;;8.10;82.45
30110;BME280;14965;50.660;13.226;2023-03-14T10:46:26;92805.44;;;8.21;82.58
30110;BME280;14965;50.660;13.226;2023-03-14T10:48:53;92805.91;;;8.19;82.13
30110;BME280;14965;50.660;13.226;2023-03-14T10:51:27;92809.03;;;8.27;83.26
30110;BME280;14965;50.660;13.226;2023-03-14T10:54:00;92818.38;;;8.44;82.42
30110;BME280;14965;50.660;13.226;2023-03-14T10:56:34;92814.66;;;8.47;81.08
30110;BME280;14965;50.660;13.226;2023-03-14T10:59:00;92808.47;;;8.53;81.78
30110;BME280;14965;50.660;13.226;2023-03-14T11:01:40;92816.91;;;8.64;82.46
30110;BME280;14965;50.660;13.226;2023-03-14T11:04:44;92812.53;;;8.87;80.73
30110;BME280;14965;50.660;13.226;2023-03-14T11:07:23;92816.75;;;9.03;78.80
30110;BME280;14965;50.660;13.226;2023-03-14T11:10:01;92820.03;;;9.21;79.93
30110;BME280;14965;50.660;13.226;2023-03-14T11:12:41;92812.22;;;9.55;77.56
30110;BME280;14965;50.660;13.226;2023-03-14T11:15:20;92817.53;;;9.79;75.89
30110;BME280;14965;50.660;13.226;2023-03-14T11:18:12;92810.63;;;9.69;76.21
30110;BME280;14965;50.660;13.226;2023-03-14T11:20:51;92806.56;;;9.64;77.71
30110;BME280;14965;50.660;13.226;2023-03-14T11:26:21;92790.44;;;9.37;75.29
30110;BME280;14965;50.660;13.226;2023-03-14T11:28:56;92805.44;;;9.36;77.04
30110;BME280;14965;50.660;13.226;2023-03-14T11:31:27;92796.72;;;9.37;75.07
30110;BME280;14965;50.660;13.226;2023-03-14T11:34:01;92808.69;;;9.34;77.20
30110;BME280;14965;50.660;13.226;2023-03-14T11:36:51;92794.56;;;9.47;76.41
30110;BME280;14965;50.660;13.226;2023-03-14T11:39:20;92806.28;;;9.62;75.52
30110;BME280;14965;50.660;13.226;2023-03-14T11:41:52;92806.56;;;9.64;77.85
30110;BME280;14965;50.660;13.226;2023-03-14T11:44:24;92806.16;;;9.51;81.74
30110;BME280;14965;50.660;13.226;2023-03-14T11:46:57;92802.34;;;9.48;82.42
30110;BME280;14965;50.660;13.226;2023-03-14T11:49:33;92811.88;;;9.47;82.09
30110;BME280;14965;50.660;13.226;2023-03-14T11:52:06;92806.44;;;9.33;82.33
30110;BME280;14965;50.660;13.226;2023-03-14T11:54:43;92812.50;;;9.37;85.51
30110;BME280;14965;50.660;13.226;2023-03-14T11:57:14;92818.06;;;9.42;85.93
30110;BME280;14965;50.660;13.226;2023-03-14T11:59:52;92816.28;;;9.04;85.15
30110;BME280;14965;50.660;13.226;2023-03-14T12:02:27;92813.03;;;8.70;88.18
30110;BME280;14965;50.660;13.226;2023-03-14T12:05:46;92802.66;;;8.80;92.95
30110;BME280;14965;50.660;13.226;2023-03-14T12:08:39;92808.91;;;8.95;92.49
30110;BME280;14965;50.660;13.226;2023-03-14T12:11:20;92813.94;;;8.97;90.48
30110;BME280;14965;50.660;13.226;2023-03-14T12:13:51;92810.03;;;9.04;90.82
30110;BME280;14965;50.660;13.226;2023-03-14T12:16:35;92809.16;;;9.12;90.42
30110;BME280;14965;50.660;13.226;2023-03-14T12:19:36;92809.72;;;9.16;89.30
30110;BME280;14965;50.660;13.226;2023-03-14T12:22:20;92809.22;;;9.18;90.14
30110;BME280;14965;50.660;13.226;2023-03-14T12:24:52;92813.84;;;9.27;91.03
30110;BME280;14965;50.660;13.226;2023-03-14T12:28:13;92813.56;;;9.25;89.20
30110;BME280;14965;50.660;13.226;2023-03-14T12:30:42;92803.78;;;9.23;89.87
30110;BME280;14965;50.660;13.226;2023-03-14T12:33:30;92807.09;;;9.28;89.61
30110;BME280;14965;50.660;13.226;2023-03-14T12:36:23;92810.94;;;9.36;89.94
30110;BME280;14965;50.660;13.226;2023-03-14T12:39:24;92807.38;;;9.30;87.06
30110;BME280;14965;50.660;13.226;2023-03-14T12:42:03;92801.03;;;9.23;88.23
30110;BME280;14965;50.660;13.226;2023-03-14T12:44:46;92803.16;;;9.14;88.89
30110;BME280;14965;50.660;13.226;2023-03-14T12:48:10;92799.25;;;9.20;88.78
30110;BME280;14965;50.660;13.226;2023-03-14T12:50:43;92790.56;;;9.28;89.35
30110;BME280;14965;50.660;13.226;2023-03-14T12:53:57;92789.28;;;9.43;88.60
30110;BME280;14965;50.660;13.226;2023-03-14T12:56:50;92782.75;;;9.41;87.92
30110;BME280;14965;50.660;13.226;2023-03-14T12:59:34;92781.00;;;9.43;89.31
30110;BME280;14965;50.660;13.226;2023-03-14T13:02:23;92774.88;;;9.54;87.22
30110;BME280;14965;50.660;13.226;2023-03-14T13:04:59;92767.03;;;9.47;85.56
30110;BME280;14965;50.660;13.226;2023-03-14T13:07:39;92765.44;;;9.40;86.83
30110;BME280;14965;50.660;13.226;2023-03-14T13:10:25;92769.63;;;9.15;86.34
30110;BME280;14965;50.660;13.226;2023-03-14T13:12:55;92770.78;;;9.09;86.31
30110;BME280;14965;50.660;13.226;2023-03-14T13:15:27;92767.19;;;9.03;87.20